Ituzaingo, Argentina
Current Conditions -  °F | °C
As of 4:00 AM on Sunday 26 Oct 2014 (Local Time) from SARP Reporting Station
Clear Clear  
Wind Chill: 73°   Ceiling: Unl
Heat Index: 73°   Visibility: 6mi
Dew Point: 64°   Wind: 6mph
Humidity: 73%   Direction: 90°E
Pressure: 29.83"   Gusts: NA
Location:  27.6°S, 56.68°W
Report Text: SARP 260700Z 09005KT CAVOK 23/18 Q1010
Loading
Personal Weather Stations






























Interactive Weather Map New forecast layout! Learn more

10-Day Weather Forecast

Advertisements
Track Severe Weather on mobile